Time;durP1;ratioP1;P1;durP2;ratioP2;P2;SDS_P1;SDS_P2;PMS_P1;PMS_P2;Temp;Humidity;BMP_temperature;BMP_pressure;BME280_temperature;BME280_humidity;BME280_pressure;Samples;Min_cycle;Max_cycle;Signal;HPM_P1;HPM_P2
2022/10/24 00:00:45;;;;;;;1999.90;999.90;;;15.10;99.90;;;;;;5053732;28;20412;-67
2022/10/24 00:03:11;;;;;;;1999.90;999.90;;;15.20;99.90;;;;;;5054415;28;20168;-68
2022/10/24 00:05:41;;;;;;;1999.90;999.90;;;15.30;99.90;;;;;;5054139;28;20447;-68
2022/10/24 00:08:07;;;;;;;1999.90;999.90;;;15.40;99.90;;;;;;5054080;28;20409;-68
2022/10/24 00:10:35;;;;;;;1999.90;999.90;;;15.60;99.90;;;;;;5054119;28;20409;-67
2022/10/24 00:13:00;;;;;;;1999.90;999.90;;;15.90;99.90;;;;;;5054415;28;20412;-67
2022/10/24 00:15:26;;;;;;;1999.90;999.90;;;16.30;99.90;;;;;;5054090;28;21177;-67
2022/10/24 00:17:52;;;;;;;1999.90;999.90;;;16.50;99.90;;;;;;5053856;28;20165;-68
2022/10/24 00:20:17;;;;;;;1999.90;999.90;;;16.70;99.90;;;;;;5054100;28;20680;-67
2022/10/24 00:22:43;;;;;;;1999.90;999.90;;;16.90;99.90;;;;;;5054049;28;20239;-68
2022/10/24 00:25:08;;;;;;;1999.90;999.90;;;17.00;99.90;;;;;;5053884;28;20191;-68
2022/10/24 00:27:35;;;;;;;1999.90;999.90;;;16.90;99.90;;;;;;5053561;28;20196;-67
2022/10/24 00:30:01;;;;;;;1999.90;999.90;;;16.80;99.90;;;;;;5054112;28;20655;-67
2022/10/24 00:32:27;;;;;;;1999.90;999.90;;;16.70;99.90;;;;;;5053832;28;20412;-67
2022/10/24 00:34:52;;;;;;;1999.90;999.90;;;16.80;99.90;;;;;;5053702;28;20435;-68
2022/10/24 00:37:18;;;;;;;1999.90;999.90;;;16.90;99.90;;;;;;5053526;28;20798;-68
2022/10/24 00:39:44;;;;;;;1999.90;999.90;;;16.80;99.90;;;;;;5053588;28;20185;-68
2022/10/24 00:42:11;;;;;;;1999.90;999.90;;;16.80;99.90;;;;;;5053673;28;20174;-68
2022/10/24 00:44:38;;;;;;;1999.90;999.90;;;16.80;99.90;;;;;;5053559;28;20209;-67
2022/10/24 00:47:13;;;;;;;1999.90;999.90;;;16.70;99.90;;;;;;5053251;28;20964;-67
2022/10/24 00:50:12;;;;;;;1999.90;999.90;;;16.70;99.90;;;;;;5053443;28;20413;-68
2022/10/24 00:52:43;;;;;;;1999.90;999.90;;;16.70;99.90;;;;;;5053396;28;20409;-68
2022/10/24 00:55:10;;;;;;;1999.90;999.90;;;16.70;99.90;;;;;;5053458;28;20439;-67
2022/10/24 00:57:43;;;;;;;1999.90;999.90;;;16.70;99.90;;;;;;5053002;28;20460;-67
2022/10/24 01:00:13;;;;;;;1999.90;999.90;;;16.90;99.90;;;;;;5053371;28;20422;-68
2022/10/24 01:02:39;;;;;;;1999.90;999.90;;;16.90;99.90;;;;;;5053166;28;20410;-68
2022/10/24 01:05:07;;;;;;;1999.90;999.90;;;17.00;99.90;;;;;;5053163;28;20429;-67
2022/10/24 01:08:05;;;;;;;1999.90;999.90;;;17.10;99.90;;;;;;5052857;28;20800;-67
2022/10/24 01:10:49;;;;;;;1999.90;999.90;;;17.20;99.90;;;;;;5053105;28;20432;-68
2022/10/24 01:13:39;;;;;;;1999.90;999.90;;;17.30;99.90;;;;;;5052397;28;20801;-68
2022/10/24 01:16:10;;;;;;;1999.90;999.90;;;17.40;99.90;;;;;;5052917;28;20881;-67
2022/10/24 01:18:45;;;;;;;1999.90;999.90;;;17.40;99.90;;;;;;5052832;28;20423;-68
2022/10/24 01:21:34;;;;;;;1999.90;999.90;;;17.50;99.90;;;;;;5052870;28;20410;-67
2022/10/24 01:24:15;;;;;;;1999.90;999.90;;;17.60;99.90;;;;;;5052864;28;20422;-68
2022/10/24 01:26:53;;;;;;;1999.90;999.90;;;17.60;99.90;;;;;;5052542;28;20446;-68
2022/10/24 01:29:34;;;;;;;1999.90;999.90;;;17.60;99.90;;;;;;5052700;28;20429;-67
2022/10/24 01:32:15;;;;;;;1999.90;999.90;;;17.60;99.90;;;;;;5052798;28;20895;-67
2022/10/24 01:34:46;;;;;;;1999.90;999.90;;;17.60;99.90;;;;;;5052780;28;20460;-68
2022/10/24 01:37:22;;;;;;;1999.90;999.90;;;17.60;99.90;;;;;;5052478;28;20409;-67
2022/10/24 01:39:55;;;;;;;1999.90;999.90;;;17.70;99.90;;;;;;5052541;28;20407;-68
2022/10/24 01:42:22;;;;;;;1999.90;999.90;;;17.70;99.90;;;;;;5052510;28;20484;-68
2022/10/24 01:44:52;;;;;;;1999.90;999.90;;;17.80;99.90;;;;;;5052383;28;20540;-68
2022/10/24 01:47:25;;;;;;;1999.90;999.90;;;17.90;99.90;;;;;;5052149;28;20457;-68
2022/10/24 01:50:02;;;;;;;1999.90;999.90;;;17.80;99.90;;;;;;5052356;28;20409;-68
2022/10/24 01:52:33;;;;;;;1999.90;999.90;;;17.80;99.90;;;;;;5052448;28;20531;-68
2022/10/24 01:54:59;;;;;;;1999.90;999.90;;;17.80;99.90;;;;;;5052348;28;20423;-67
2022/10/24 01:57:29;;;;;;;1999.90;999.90;;;17.80;99.90;;;;;;5051939;28;20478;-69
2022/10/24 01:59:55;;;;;;;1999.90;999.90;;;17.70;99.90;;;;;;5052156;28;20481;-68
2022/10/24 02:02:28;;;;;;;1999.90;999.90;;;17.80;99.90;;;;;;5052454;28;20904;-68
2022/10/24 02:04:59;;;;;;;1999.90;999.90;;;17.70;99.90;;;;;;5052292;28;20442;-68
2022/10/24 02:07:27;;;;;;;1999.90;999.90;;;17.70;99.90;;;;;;5052112;28;20483;-68
2022/10/24 02:10:01;;;;;;;1999.90;999.90;;;17.70;99.90;;;;;;5052200;28;20441;-68
2022/10/24 02:12:29;;;;;;;1999.90;999.90;;;17.80;99.90;;;;;;5052088;28;20398;-68
2022/10/24 02:15:01;;;;;;;1999.90;999.90;;;17.80;99.90;;;;;;5051948;28;20564;-68
2022/10/24 02:17:28;;;;;;;1999.90;999.90;;;17.80;99.90;;;;;;5051726;28;20399;-68
2022/10/24 02:19:53;;;;;;;1999.90;999.90;;;17.80;99.90;;;;;;5051864;28;20468;-68
2022/10/24 02:22:28;;;;;;;1999.90;999.90;;;17.70;99.90;;;;;;5051954;28;20414;-67
2022/10/24 02:25:00;;;;;;;1999.90;999.90;;;17.70;99.90;;;;;;5051495;28;20209;-68
2022/10/24 02:27:32;;;;;;;1999.90;999.90;;;17.80;99.90;;;;;;5051637;28;21025;-68
2022/10/24 02:30:09;;;;;;;1999.90;999.90;;;17.80;99.90;;;;;;5051866;28;20413;-67
2022/10/24 02:32:40;;;;;;;1999.90;999.90;;;17.80;99.90;;;;;;5051933;28;20413;-68
2022/10/24 02:35:07;;;;;;;1999.90;999.90;;;17.80;99.90;;;;;;5051799;28;20775;-67
2022/10/24 02:37:35;;;;;;;1999.90;999.90;;;17.80;99.90;;;;;;5051450;28;20948;-68
2022/10/24 02:40:04;;;;;;;1999.90;999.90;;;17.80;99.90;;;;;;5051856;28;20413;-67
2022/10/24 02:42:31;;;;;;;1999.90;999.90;;;17.80;99.90;;;;;;5051687;28;20416;-68
2022/10/24 02:45:00;;;;;;;1999.90;999.90;;;17.80;99.90;;;;;;5051677;28;20566;-67
2022/10/24 02:47:27;;;;;;;1999.90;999.90;;;17.80;99.90;;;;;;5051397;28;20464;-67
2022/10/24 02:49:53;;;;;;;1999.90;999.90;;;17.80;99.90;;;;;;5051754;28;20776;-68
2022/10/24 02:52:20;;;;;;;1999.90;999.90;;;17.80;99.90;;;;;;5051808;28;20927;-68
2022/10/24 02:54:46;;;;;;;1999.90;999.90;;;17.80;99.90;;;;;;5051551;28;20931;-68
2022/10/24 02:57:13;;;;;;;1999.90;999.90;;;17.80;99.90;;;;;;5051180;28;20467;-68
2022/10/24 02:59:39;;;;;;;1999.90;999.90;;;17.80;99.90;;;;;;5051813;28;20641;-68
2022/10/24 03:02:05;;;;;;;1999.90;999.90;;;17.90;99.90;;;;;;5051597;28;20463;-67
2022/10/24 03:04:31;;;;;;;1999.90;999.90;;;17.80;99.90;;;;;;5051524;28;20951;-67
2022/10/24 03:06:57;;;;;;;1999.90;999.90;;;17.90;99.90;;;;;;5051226;28;20613;-68
2022/10/24 03:09:22;;;;;;;1999.90;999.90;;;18.00;99.90;;;;;;5051511;28;20198;-69
2022/10/24 03:11:48;;;;;;;1999.90;999.90;;;18.00;99.90;;;;;;5051467;28;20176;-67
2022/10/24 03:14:14;;;;;;;1999.90;999.90;;;18.00;99.90;;;;;;5051410;28;20187;-68
2022/10/24 03:16:39;;;;;;;1999.90;999.90;;;18.10;99.90;;;;;;5051222;28;20402;-68
2022/10/24 03:19:05;;;;;;;1999.90;999.90;;;18.10;99.90;;;;;;5051293;28;20177;-68
2022/10/24 03:21:31;;;;;;;1999.90;999.90;;;18.10;99.90;;;;;;5051402;28;20178;-68
2022/10/24 03:23:56;;;;;;;1999.90;999.90;;;18.20;99.90;;;;;;5051316;28;20219;-67
2022/10/24 03:26:22;;;;;;;1999.90;999.90;;;18.20;99.90;;;;;;5051113;28;20654;-67
2022/10/24 03:28:48;;;;;;;1999.90;999.90;;;18.20;99.90;;;;;;5051117;28;20172;-67
2022/10/24 03:31:13;;;;;;;1999.90;999.90;;;18.10;99.90;;;;;;5051344;28;20244;-68
2022/10/24 03:33:39;;;;;;;1999.90;999.90;;;18.10;99.90;;;;;;5092041;22;20356;-68
2022/10/24 03:36:05;;;;;;;1999.90;999.90;;;18.00;99.90;;;;;;5053722;28;20167;-68
2022/10/24 03:38:31;;;;;;;1999.90;999.90;;;18.00;99.90;;;;;;5055341;28;20175;-69
2022/10/24 03:40:56;;;;;;;1999.90;999.90;;;18.10;99.90;;;;;;5056229;28;20397;-68
2022/10/24 03:43:22;;;;;;;1999.90;999.90;;;18.00;99.90;;;;;;5055645;28;20198;-68
2022/10/24 03:45:48;;;;;;;1999.90;999.90;;;18.10;99.90;;;;;;5055750;28;20218;-68
2022/10/24 03:48:14;;;;;;;1999.90;999.90;;;18.10;99.90;;;;;;5055310;28;20254;-68
2022/10/24 03:50:39;;;;;;;1999.90;999.90;;;18.10;99.90;;;;;;5055991;28;20165;-68
2022/10/24 03:53:05;;;;;;;1999.90;999.90;;;18.20;99.90;;;;;;5055902;28;20837;-68
2022/10/24 03:55:31;;;;;;;1999.90;999.90;;;18.10;99.90;;;;;;5055626;28;20515;-68
2022/10/24 03:57:57;;;;;;;1999.90;999.90;;;18.10;99.90;;;;;;5055617;28;20156;-68
2022/10/24 04:00:22;;;;;;;1999.90;999.90;;;18.20;99.90;;;;;;5056085;28;20821;-68
2022/10/24 04:02:50;;;;;;;1999.90;999.90;;;18.20;99.90;;;;;;5055216;28;20202;-68
2022/10/24 04:05:16;;;;;;;1999.90;999.90;;;18.20;99.90;;;;;;5055672;28;20516;-70
2022/10/24 04:07:41;;;;;;;1999.90;999.90;;;18.20;99.90;;;;;;5054887;28;20459;-70
2022/10/24 04:10:07;;;;;;;1999.90;999.90;;;18.10;99.90;;;;;;5054964;28;20487;-70
2022/10/24 04:12:33;;;;;;;1999.90;999.90;;;18.10;99.90;;;;;;5055434;28;20168;-70
2022/10/24 04:14:59;;;;;;;1999.90;999.90;;;18.10;99.90;;;;;;5055589;28;20433;-71
2022/10/24 04:17:24;;;;;;;1999.90;999.90;;;17.90;99.90;;;;;;5055501;28;20175;-70
2022/10/24 04:19:50;;;;;;;1999.90;999.90;;;17.80;99.90;;;;;;5055223;28;20221;-70
2022/10/24 04:22:15;;;;;;;1999.90;999.90;;;17.80;99.90;;;;;;5036971;28;20211;-71
2022/10/24 04:24:41;;;;;;;1999.90;999.90;;;17.70;99.90;;;;;;5054756;28;20654;-70
2022/10/24 04:27:07;;;;;;;1999.90;999.90;;;17.60;99.90;;;;;;5054807;28;20277;-71
2022/10/24 04:29:33;;;;;;;1999.90;999.90;;;17.60;99.90;;;;;;5054699;28;20245;-70
2022/10/24 04:31:58;;;;;;;1999.90;999.90;;;17.60;99.90;;;;;;5054736;28;20175;-70
2022/10/24 04:34:24;;;;;;;1999.90;999.90;;;17.50;99.90;;;;;;5054429;28;20447;-70
2022/10/24 04:36:50;;;;;;;1999.90;999.90;;;17.50;99.90;;;;;;5054346;28;20184;-70
2022/10/24 04:39:15;;;;;;;1999.90;999.90;;;17.50;99.90;;;;;;5054346;28;20576;-71
2022/10/24 04:41:41;;;;;;;1999.90;999.90;;;17.40;99.90;;;;;;5054086;28;20187;-70
2022/10/24 04:44:07;;;;;;;1999.90;999.90;;;17.40;99.90;;;;;;5053928;28;20220;-70
2022/10/24 04:46:32;;;;;;;1999.90;999.90;;;17.50;99.90;;;;;;5053353;28;20207;-70
2022/10/24 04:48:58;;;;;;;1999.90;999.90;;;17.40;99.90;;;;;;5053351;28;20248;-71
2022/10/24 04:51:24;;;;;;;1999.90;999.90;;;17.50;99.90;;;;;;5053474;28;20167;-70
2022/10/24 04:53:51;;;;;;;1999.90;999.90;;;17.40;99.90;;;;;;5053298;28;20192;-70
2022/10/24 04:56:17;;;;;;;1999.90;999.90;;;17.50;99.90;;;;;;5053481;28;20493;-70
2022/10/24 04:58:43;;;;;;;1999.90;999.90;;;17.60;99.90;;;;;;5053163;28;20400;-70
2022/10/24 05:01:09;;;;;;;1999.90;999.90;;;17.60;99.90;;;;;;5053405;28;20503;-70
2022/10/24 05:03:34;;;;;;;1999.90;999.90;;;17.60;99.90;;;;;;5053260;28;20191;-70
2022/10/24 05:06:00;;;;;;;1999.90;999.90;;;17.60;99.90;;;;;;5053048;28;21047;-70
2022/10/24 05:08:26;;;;;;;1999.90;999.90;;;17.60;99.90;;;;;;5052913;28;20177;-70
2022/10/24 05:10:52;;;;;;;1999.90;999.90;;;17.70;99.90;;;;;;5053053;28;20183;-71
2022/10/24 05:13:17;;;;;;;1999.90;999.90;;;17.70;99.90;;;;;;5052944;28;20426;-70
2022/10/24 05:15:43;;;;;;;1999.90;999.90;;;17.70;99.90;;;;;;5052993;28;20249;-70
2022/10/24 05:18:09;;;;;;;1999.90;999.90;;;17.60;99.90;;;;;;5052758;28;20625;-70
2022/10/24 05:20:34;;;;;;;1999.90;999.90;;;17.60;99.90;;;;;;5052903;28;20198;-70
2022/10/24 05:23:00;;;;;;;1999.90;999.90;;;17.60;99.90;;;;;;5052791;28;20188;-70
2022/10/24 05:25:25;;;;;;;1999.90;999.90;;;17.60;99.90;;;;;;5052868;28;20166;-70
2022/10/24 05:27:51;;;;;;;1999.90;999.90;;;17.60;99.90;;;;;;5052625;28;20693;-70
2022/10/24 05:30:17;;;;;;;1999.90;999.90;;;17.60;99.90;;;;;;5052755;28;20537;-70
2022/10/24 05:32:42;;;;;;;1999.90;999.90;;;17.60;99.90;;;;;;5052467;28;20186;-70
2022/10/24 05:35:09;;;;;;;1999.90;999.90;;;17.50;99.90;;;;;;5052664;28;20168;-70
2022/10/24 05:37:35;;;;;;;1999.90;999.90;;;17.50;99.90;;;;;;5052298;28;20206;-70
2022/10/24 05:40:00;;;;;;;1999.90;999.90;;;17.50;99.90;;;;;;5052592;28;20405;-71
2022/10/24 05:42:26;;;;;;;1999.90;999.90;;;17.50;99.90;;;;;;5052561;28;20407;-70
2022/10/24 05:44:52;;;;;;;1999.90;999.90;;;17.40;99.90;;;;;;5052368;28;20197;-70
2022/10/24 05:47:17;;;;;;;1999.90;999.90;;;17.40;99.90;;;;;;5052103;28;20251;-70
2022/10/24 05:49:43;;;;;;;1999.90;999.90;;;17.40;99.90;;;;;;5052428;28;20168;-70
2022/10/24 05:52:08;;;;;;;1999.90;999.90;;;17.40;99.90;;;;;;5052278;28;20552;-70
2022/10/24 05:54:34;;;;;;;1999.90;999.90;;;17.30;99.90;;;;;;5052251;28;20195;-70
2022/10/24 05:57:00;;;;;;;1999.90;999.90;;;17.30;99.90;;;;;;5052075;28;20645;-70
2022/10/24 05:59:25;;;;;;;1999.90;999.90;;;17.20;99.90;;;;;;5051641;28;20179;-70
2022/10/24 06:01:51;;;;;;;1999.90;999.90;;;17.20;99.90;;;;;;5052182;28;20181;-70
2022/10/24 06:04:16;;;;;;;1999.90;999.90;;;17.20;99.90;;;;;;5052128;28;20237;-70
2022/10/24 06:06:44;;;;;;;1999.90;999.90;;;17.20;99.90;;;;;;5051841;28;20187;-70
2022/10/24 06:09:11;;;;;;;1999.90;999.90;;;17.20;99.90;;;;;;5052034;28;20168;-70
2022/10/24 06:11:36;;;;;;;1999.90;999.90;;;17.20;99.90;;;;;;5052119;28;20417;-70
2022/10/24 06:14:03;;;;;;;1999.90;999.90;;;17.10;99.90;;;;;;5051980;28;20777;-70
2022/10/24 06:16:29;;;;;;;1999.90;999.90;;;17.10;99.90;;;;;;5051960;28;20246;-70
2022/10/24 06:18:56;;;;;;;1999.90;999.90;;;17.20;99.90;;;;;;5051801;28;20409;-70
2022/10/24 06:21:22;;;;;;;1999.90;999.90;;;17.20;99.90;;;;;;5051868;28;20469;-70
2022/10/24 06:23:47;;;;;;;1999.90;999.90;;;17.20;99.90;;;;;;5052218;28;20796;-71
2022/10/24 06:26:13;;;;;;;1999.90;999.90;;;17.20;99.90;;;;;;5053549;28;20706;-70
2022/10/24 06:28:40;;;;;;;1999.90;999.90;;;17.10;99.90;;;;;;5052452;28;20168;-70
2022/10/24 06:31:07;;;;;;;1999.90;999.90;;;17.00;99.90;;;;;;5053211;28;20204;-71
2022/10/24 06:33:32;;;;;;;1999.90;999.90;;;17.00;99.90;;;;;;5052552;28;20801;-71
2022/10/24 06:36:00;;;;;;;1999.90;999.90;;;17.00;99.90;;;;;;5052783;28;20456;-72
2022/10/24 06:38:26;;;;;;;1999.90;999.90;;;16.90;99.90;;;;;;5053002;28;20226;-71
2022/10/24 06:40:52;;;;;;;1999.90;999.90;;;16.90;99.90;;;;;;5052930;28;20413;-71
2022/10/24 06:43:18;;;;;;;1999.90;999.90;;;16.90;99.90;;;;;;5052755;28;20801;-71
2022/10/24 06:45:44;;;;;;;1999.90;999.90;;;17.00;99.90;;;;;;5052777;28;20178;-71
2022/10/24 06:48:10;;;;;;;1999.90;999.90;;;17.00;99.90;;;;;;5052874;28;20416;-71
2022/10/24 06:50:38;;;;;;;1999.90;999.90;;;17.10;99.90;;;;;;5053209;28;20923;-70
2022/10/24 06:53:04;;;;;;;1999.90;999.90;;;17.10;99.90;;;;;;5053029;28;20436;-71
2022/10/24 06:55:29;;;;;;;1999.90;999.90;;;17.20;99.90;;;;;;5051928;28;20461;-71
2022/10/24 06:57:55;;;;;;;1999.90;999.90;;;17.20;99.90;;;;;;5051474;28;20677;-70
2022/10/24 07:00:20;;;;;;;1999.90;999.90;;;17.20;99.90;;;;;;5051833;28;20521;-70
2022/10/24 07:02:46;;;;;;;1999.90;999.90;;;17.30;99.90;;;;;;5051898;28;20175;-71
2022/10/24 07:05:13;;;;;;;1999.90;999.90;;;17.30;99.90;;;;;;5051919;28;20181;-70
2022/10/24 07:07:41;;;;;;;1999.90;999.90;;;17.30;99.90;;;;;;5051359;28;20201;-71
2022/10/24 07:10:07;;;;;;;1999.90;999.90;;;17.40;99.90;;;;;;5051605;28;20447;-71
2022/10/24 07:12:33;;;;;;;1999.90;999.90;;;17.40;99.90;;;;;;5055389;28;20402;-70
2022/10/24 07:14:58;;;;;;;1999.90;999.90;;;17.40;99.90;;;;;;5055267;28;20432;-70
2022/10/24 07:17:24;;;;;;;1999.90;999.90;;;17.40;99.90;;;;;;5055077;28;20181;-70
2022/10/24 07:19:53;;;;;;;1999.90;999.90;;;17.50;99.90;;;;;;5055216;28;20204;-71
2022/10/24 07:22:19;;;;;;;1999.90;999.90;;;17.50;99.90;;;;;;5055215;28;20193;-70
2022/10/24 07:24:45;;;;;;;1999.90;999.90;;;17.50;99.90;;;;;;5055263;28;20429;-70
2022/10/24 07:27:11;;;;;;;1999.90;999.90;;;17.50;99.90;;;;;;5054777;28;20242;-70
2022/10/24 07:29:39;;;;;;;1999.90;999.90;;;17.60;99.90;;;;;;5055072;28;20168;-70
2022/10/24 07:32:05;;;;;;;1999.90;999.90;;;17.60;99.90;;;;;;5055043;28;20415;-71
2022/10/24 07:34:31;;;;;;;1999.90;999.90;;;17.70;99.90;;;;;;5054789;28;20457;-70
2022/10/24 07:36:56;;;;;;;1999.90;999.90;;;17.80;99.90;;;;;;5054678;28;20176;-70
2022/10/24 07:39:22;;;;;;;1999.90;999.90;;;17.80;99.90;;;;;;5054991;28;20177;-70
2022/10/24 07:41:47;;;;;;;1999.90;999.90;;;17.80;99.90;;;;;;5054900;28;20657;-70
2022/10/24 07:44:13;;;;;;;1999.90;999.90;;;17.90;99.90;;;;;;5054695;28;20214;-71
2022/10/24 07:46:41;;;;;;;1999.90;999.90;;;17.90;99.90;;;;;;5054417;28;20217;-71
2022/10/24 07:49:07;;;;;;;1999.90;999.90;;;18.00;99.90;;;;;;5054527;28;20185;-70
2022/10/24 07:51:33;;;;;;;1999.90;999.90;;;18.00;99.90;;;;;;5054698;28;20927;-70
2022/10/24 07:53:59;;;;;;;1999.90;999.90;;;18.00;99.90;;;;;;5054557;28;20434;-70
2022/10/24 07:56:25;;;;;;;1999.90;999.90;;;18.00;99.90;;;;;;5054551;28;20179;-70
2022/10/24 07:58:51;;;;;;;1999.90;999.90;;;18.00;99.90;;;;;;5054330;28;20417;-70
2022/10/24 08:01:20;;;;;;;1999.90;999.90;;;18.00;99.90;;;;;;5054469;28;20895;-70
2022/10/24 08:03:45;;;;;;;1999.90;999.90;;;18.00;99.90;;;;;;5074480;28;20201;-70
2022/10/24 08:06:17;;;;;;;1999.90;999.90;;;18.10;99.90;;;;;;5074143;28;20790;-70
2022/10/24 08:08:43;;;;;;;1999.90;999.90;;;18.10;99.90;;;;;;5074154;28;20206;-70
2022/10/24 08:11:12;;;;;;;1999.90;999.90;;;18.20;99.90;;;;;;5074374;28;20772;-70
2022/10/24 08:13:38;;;;;;;1999.90;999.90;;;18.20;99.90;;;;;;5074224;28;20417;-71
2022/10/24 08:16:09;;;;;;;1999.90;999.90;;;18.20;99.90;;;;;;5074068;28;20420;-70
2022/10/24 08:18:36;;;;;;;1999.90;999.90;;;18.20;99.90;;;;;;5056241;28;20205;-71
2022/10/24 08:21:04;;;;;;;1999.90;999.90;;;18.20;99.90;;;;;;5074809;28;20409;-70
2022/10/24 08:23:31;;;;;;;1999.90;999.90;;;18.30;99.90;;;;;;5075041;28;20442;-70
2022/10/24 08:25:57;;;;;;;1999.90;999.90;;;18.40;99.90;;;;;;5075081;28;20906;-71
2022/10/24 08:28:23;;;;;;;1999.90;999.90;;;18.40;99.90;;;;;;5074898;28;20452;-71
2022/10/24 08:30:57;;;;;;;1999.90;999.90;;;18.50;99.90;;;;;;5074141;28;20174;-71
2022/10/24 08:33:23;;;;;;;1999.90;999.90;;;18.50;99.90;;;;;;5034182;28;20373;-70
2022/10/24 08:35:48;;;;;;;1999.90;999.90;;;18.50;99.90;;;;;;5073862;28;20438;-69
2022/10/24 08:38:14;;;;;;;1999.90;999.90;;;18.40;99.90;;;;;;5074318;28;20167;-69
2022/10/24 08:40:39;;;;;;;1999.90;999.90;;;18.50;99.90;;;;;;5074694;28;20171;-69
2022/10/24 08:43:05;;;;;;;1999.90;999.90;;;18.50;99.90;;;;;;5072896;28;20198;-70
2022/10/24 08:45:42;;;;;;;1999.90;999.90;;;18.50;99.90;;;;;;5063951;28;20181;-70
2022/10/24 08:48:12;;;;;;;1999.90;999.90;;;18.60;99.90;;;;;;5049754;28;20177;-70
2022/10/24 08:50:44;;;;;;;1999.90;999.90;;;18.70;99.90;;;;;;5052756;28;20500;-71
2022/10/24 08:53:24;;;;;;;1999.90;999.90;;;18.80;99.90;;;;;;5045267;28;20455;-71
2022/10/24 08:55:55;;;;;;;1999.90;999.90;;;18.80;99.90;;;;;;5052841;28;20406;-70
2022/10/24 08:58:25;;;;;;;1999.90;999.90;;;18.80;99.90;;;;;;5052834;28;20430;-71
2022/10/24 09:00:53;;;;;;;1999.90;999.90;;;18.90;99.90;;;;;;5053190;28;20405;-71
2022/10/24 09:03:25;;;;;;;1999.90;999.90;;;18.90;99.90;;;;;;5052989;28;20446;-71
2022/10/24 09:05:56;;;;;;;1999.90;999.90;;;18.90;99.90;;;;;;5052891;28;20448;-71
2022/10/24 09:08:36;;;;;;;1999.90;999.90;;;18.80;99.90;;;;;;5052723;28;20418;-71
2022/10/24 09:11:06;;;;;;;1999.90;999.90;;;18.80;99.90;;;;;;5052975;28;20429;-70
2022/10/24 09:13:36;;;;;;;1999.90;999.90;;;18.80;99.90;;;;;;5054434;28;20431;-70
2022/10/24 09:16:02;;;;;;;1999.90;999.90;;;18.80;99.90;;;;;;5054181;28;20494;-70
2022/10/24 09:18:35;;;;;;;1999.90;999.90;;;18.70;99.90;;;;;;5053688;28;20417;-70
2022/10/24 09:21:01;;;;;;;1999.90;999.90;;;18.80;99.90;;;;;;5053099;28;20449;-70
2022/10/24 09:23:27;;;;;;;1999.90;999.90;;;18.80;99.90;;;;;;5053464;28;20427;-70
2022/10/24 09:25:57;;;;;;;1999.90;999.90;;;18.80;99.90;;;;;;5052918;28;20407;-70
2022/10/24 09:28:24;;;;;;;1999.90;999.90;;;18.80;99.90;;;;;;5051888;28;20449;-71
2022/10/24 09:30:50;;;;;;;1999.90;999.90;;;18.80;99.90;;;;;;5048362;28;20442;-70
2022/10/24 09:33:35;;;;;;;1999.90;999.90;;;18.80;99.90;;;;;;5050373;28;20493;-70
2022/10/24 09:36:03;;;;;;;1999.90;999.90;;;18.80;99.90;;;;;;5051426;28;20479;-69
2022/10/24 09:38:34;;;;;;;1999.90;999.90;;;18.70;99.90;;;;;;5050877;28;20507;-70
2022/10/24 09:41:23;;;;;;;1999.90;999.90;;;18.70;99.90;;;;;;5050832;28;20913;-70
2022/10/24 09:43:55;;;;;;;1999.90;999.90;;;18.60;99.90;;;;;;5051384;28;20798;-69
2022/10/24 09:46:37;;;;;;;1999.90;999.90;;;18.60;99.90;;;;;;5050907;28;20458;-70
2022/10/24 09:49:21;;;;;;;1999.90;999.90;;;18.50;99.90;;;;;;5051467;28;20390;-70
2022/10/24 09:51:58;;;;;;;1999.90;999.90;;;18.40;99.90;;;;;;5050166;28;20405;-70
2022/10/24 09:54:27;;;;;;;1999.90;999.90;;;18.40;99.90;;;;;;5050909;28;20441;-70
2022/10/24 09:57:04;;;;;;;1999.90;999.90;;;18.40;99.90;;;;;;5050571;28;20504;-70
2022/10/24 09:59:46;;;;;;;1999.90;999.90;;;18.50;99.90;;;;;;5052738;28;20401;-69
2022/10/24 10:02:23;;;;;;;1999.90;999.90;;;18.60;99.90;;;;;;5050431;28;20748;-69
2022/10/24 10:05:04;;;;;;;1999.90;999.90;;;18.60;99.90;;;;;;5052032;28;20430;-70
2022/10/24 10:07:38;;;;;;;1999.90;999.90;;;18.60;99.90;;;;;;5054307;28;20459;-69
2022/10/24 10:10:22;;;;;;;1999.90;999.90;;;18.60;99.90;;;;;;5054480;28;20454;-69
2022/10/24 10:12:58;;;;;;;1999.90;999.90;;;18.70;99.90;;;;;;5055152;28;21038;-69
2022/10/24 10:15:49;;;;;;;1999.90;999.90;;;18.70;99.90;;;;;;5052850;28;20473;-69
2022/10/24 10:18:38;;;;;;;1999.90;999.90;;;18.60;99.90;;;;;;5051222;28;20406;-72
2022/10/24 10:21:08;;;;;;;1999.90;999.90;;;18.70;99.90;;;;;;5050296;28;20416;-71
2022/10/24 10:23:41;;;;;;;1999.90;999.90;;;18.60;99.90;;;;;;5050292;28;20868;-71
2022/10/24 10:26:16;;;;;;;1999.90;999.90;;;18.60;99.90;;;;;;5050789;28;20445;-74
2022/10/24 10:28:54;;;;;;;1999.90;999.90;;;18.60;99.90;;;;;;5050303;28;20382;-77
2022/10/24 10:31:42;;;;;;;1999.90;999.90;;;18.60;99.90;;;;;;5051522;28;20401;-69
2022/10/24 10:34:08;;;;;;;1999.90;999.90;;;18.60;99.90;;;;;;5051941;28;20870;-68
2022/10/24 10:36:49;;;;;;;1999.90;999.90;;;18.60;99.90;;;;;;5053163;28;20445;-69
2022/10/24 10:39:46;;;;;;;1999.90;999.90;;;18.70;99.90;;;;;;5051308;28;20153;-70
2022/10/24 10:42:35;;;;;;;1999.90;999.90;;;18.70;99.90;;;;;;5037148;28;21177;-70
2022/10/24 10:45:19;;;;;;;1999.90;999.90;;;18.80;99.90;;;;;;5051306;28;20421;-70
2022/10/24 10:47:50;;;;;;;1999.90;999.90;;;18.90;99.90;;;;;;5052818;28;20459;-69
2022/10/24 10:50:31;;;;;;;1999.90;999.90;;;19.00;99.90;;;;;;5054001;28;20462;-70
2022/10/24 10:53:20;;;;;;;1999.90;999.90;;;19.00;99.90;;;;;;5053276;28;21094;-70
2022/10/24 10:56:10;;;;;;;1999.90;999.90;;;19.10;99.90;;;;;;5054514;28;20936;-70
2022/10/24 10:58:52;;;;;;;1999.90;999.90;;;19.20;99.90;;;;;;5052961;28;21220;-70
2022/10/24 11:01:43;;;;;;;1999.90;999.90;;;19.30;99.90;;;;;;5036116;28;20449;-70
2022/10/24 11:04:29;;;;;;;1999.90;999.90;;;19.30;99.90;;;;;;5045790;28;20848;-70
2022/10/24 11:07:18;;;;;;;1999.90;999.90;;;19.30;99.90;;;;;;5053096;28;20952;-70
2022/10/24 11:09:55;;;;;;;1999.90;999.90;;;19.20;99.90;;;;;;5053235;28;20399;-69
2022/10/24 11:12:41;;;;;;;1999.90;999.90;;;19.30;99.90;;;;;;5053465;28;20434;-70
2022/10/24 11:15:07;;;;;;;1999.90;999.90;;;19.30;99.90;;;;;;5053022;28;20425;-69
2022/10/24 11:18:00;;;;;;;1999.90;999.90;;;19.40;99.90;;;;;;5053121;28;20917;-70
2022/10/24 11:20:29;;;;;;;1999.90;999.90;;;19.20;99.90;;;;;;5053186;28;20177;-70
2022/10/24 11:23:13;;;;;;;1999.90;999.90;;;19.20;99.90;;;;;;5053688;28;20909;-70
2022/10/24 11:25:49;;;;;;;1999.90;999.90;;;19.20;99.90;;;;;;5053061;28;20414;-70
2022/10/24 11:28:24;;;;;;;1999.90;999.90;;;19.20;99.90;;;;;;5053044;28;20776;-70
2022/10/24 11:31:02;;;;;;;1999.90;999.90;;;19.10;99.90;;;;;;5052793;28;20399;-70
2022/10/24 11:33:34;;;;;;;1999.90;999.90;;;19.10;99.90;;;;;;5053412;28;20525;-70
2022/10/24 11:36:42;;;;;;;1999.90;999.90;;;19.10;99.90;;;;;;5052344;28;21001;-70
2022/10/24 11:39:22;;;;;;;1999.90;999.90;;;19.10;99.90;;;;;;5053387;28;20391;-70
2022/10/24 11:42:07;;;;;;;1999.90;999.90;;;19.10;99.90;;;;;;5053101;28;20870;-71
2022/10/24 11:45:10;;;;;;;1999.90;999.90;;;19.10;99.90;;;;;;5052377;28;21044;-71
2022/10/24 11:47:57;;;;;;;1999.90;999.90;;;19.10;99.90;;;;;;5052359;28;20965;-71
2022/10/24 11:50:52;;;;;;;1999.90;999.90;;;19.20;99.90;;;;;;5052506;28;20483;-70
2022/10/24 11:53:30;;;;;;;1999.90;999.90;;;19.30;99.90;;;;;;5053190;28;20470;-70
2022/10/24 11:56:07;;;;;;;1999.90;999.90;;;19.30;99.90;;;;;;5052081;28;20447;-70
2022/10/24 11:58:46;;;;;;;1999.90;999.90;;;19.20;99.90;;;;;;5095534;22;20495;-64
2022/10/24 12:01:49;;;;;;;1999.90;999.90;;;19.20;99.90;;;;;;5083384;28;20460;-64
2022/10/24 12:04:39;;;;;;;1999.90;999.90;;;19.20;99.90;;;;;;5076821;28;20406;-64
2022/10/24 12:07:31;;;;;;;1999.90;999.90;;;19.20;99.90;;;;;;5089581;28;20447;-64
2022/10/24 12:10:24;;;;;;;1999.90;999.90;;;19.10;99.90;;;;;;5072802;28;20912;-64
2022/10/24 12:13:19;;;;;;;1999.90;999.90;;;19.20;99.90;;;;;;5061048;28;20763;-64
2022/10/24 12:15:57;;;;;;;1999.90;999.90;;;19.20;99.90;;;;;;5064457;28;20404;-64